Zhytomyr, Ukraine
Current Conditions -  °F | °C
As of 12:00 PM on Sunday 23 Nov 2014 (Local Time) from UKKK Reporting Station
Moderate Snow Moderate Snow  
Wind Chill: -2°   Ceiling: 600
Heat Index: -2°   Visibility: 0.75mi
Dew Point: -3°   Wind: 2mph
Humidity: 93%   Direction: 280°W
Pressure: 30.45"   Gusts: NA
Location:  50.25°N, 28.67°E
Report Text: UKKK 230900Z 28001MPS 1200 R08/1200D SN OVC006 M02/M03 Q1031 08590140 TEMPO 0400 +SHSN SCT003 BKN012CB
Loading
Personal Weather Stations






























Interactive Weather Map New forecast layout! Learn more

10-Day Weather Forecast

Advertisements
Track Severe Weather on mobile